createdAt,value
2023-04-02T00:00:36.366Z,11.50
2023-04-02T00:01:36.231Z,12.30
2023-04-02T00:02:36.336Z,11.80
2023-04-02T00:03:36.286Z,12.00
2023-04-02T00:04:36.395Z,12.10
2023-04-02T00:05:36.322Z,11.50
2023-04-02T00:06:36.146Z,11.00
2023-04-02T00:07:36.189Z,10.00
2023-04-02T00:08:36.132Z,11.60
2023-04-02T00:09:36.145Z,11.00
2023-04-02T00:10:36.223Z,11.10
2023-04-02T00:11:36.115Z,12.00
2023-04-02T00:12:36.068Z,10.90
2023-04-02T00:13:36.076Z,10.90
2023-04-02T00:14:36.044Z,12.00
2023-04-02T00:15:36.368Z,11.70
2023-04-02T00:16:36.206Z,12.30
2023-04-02T00:17:36.048Z,11.70
2023-04-02T00:18:36.034Z,11.30
2023-04-02T00:19:36.045Z,11.50
2023-04-02T00:20:36.021Z,9.50
2023-04-02T00:21:37.228Z,11.70
2023-04-02T00:22:36.016Z,10.40
2023-04-02T00:23:35.995Z,11.70
2023-04-02T00:24:36.157Z,10.60
2023-04-02T00:25:36.261Z,10.80
2023-04-02T00:26:36.082Z,11.40
2023-04-02T00:27:35.915Z,10.40
2023-04-02T00:28:35.756Z,10.30
2023-04-02T00:29:35.908Z,10.60
2023-04-02T00:30:35.898Z,10.20
2023-04-02T00:31:36.015Z,11.10
2023-04-02T00:32:35.913Z,11.30
2023-04-02T00:33:35.880Z,12.60
2023-04-02T00:34:35.883Z,11.40
2023-04-02T00:35:36.193Z,11.60
2023-04-02T00:36:35.943Z,12.70
2023-04-02T00:37:35.863Z,10.90
2023-04-02T00:38:35.773Z,11.30
2023-04-02T00:39:35.769Z,12.00
2023-04-02T00:40:35.768Z,11.00
2023-04-02T00:41:35.763Z,10.50
2023-04-02T00:42:35.860Z,14.00
2023-04-02T00:43:35.751Z,13.00
2023-04-02T00:44:35.729Z,11.40
2023-04-02T00:45:35.986Z,11.20
2023-04-02T00:46:35.748Z,11.10
2023-04-02T00:47:35.898Z,13.20
2023-04-02T00:48:35.715Z,11.90
2023-04-02T00:49:35.693Z,12.60
2023-04-02T00:50:35.518Z,12.70
2023-04-02T00:51:35.591Z,13.90
2023-04-02T00:52:35.745Z,12.10
2023-04-02T00:53:35.710Z,12.10
2023-04-02T00:54:35.676Z,11.60
2023-04-02T00:55:35.930Z,11.60
2023-04-02T00:56:35.584Z,10.80
2023-04-02T00:57:35.656Z,12.40
2023-04-02T00:58:35.645Z,10.40
2023-04-02T00:59:35.654Z,11.20
2023-04-02T01:00:35.622Z,12.60
2023-04-02T01:01:35.617Z,10.40
2023-04-02T01:02:35.676Z,11.50
2023-04-02T01:03:35.733Z,12.00
2023-04-02T01:04:35.648Z,11.90
2023-04-02T01:05:35.867Z,11.50
2023-04-02T01:06:35.546Z,10.80
2023-04-02T01:07:35.493Z,11.20
2023-04-02T01:08:35.511Z,11.00
2023-04-02T01:09:35.577Z,10.80
2023-04-02T01:10:35.520Z,10.80
2023-04-02T01:11:35.530Z,10.90
2023-04-02T01:12:35.532Z,10.60
2023-04-02T01:13:35.407Z,10.90
2023-04-02T01:14:35.515Z,10.20
2023-04-02T01:15:35.675Z,11.90
2023-04-02T01:16:35.404Z,11.50
2023-04-02T01:17:35.395Z,12.70
2023-04-02T01:18:35.374Z,11.00
2023-04-02T01:19:35.449Z,12.10
2023-04-02T01:20:35.452Z,13.00
2023-04-02T01:21:35.369Z,11.70
2023-04-02T01:22:35.462Z,11.90
2023-04-02T01:23:35.372Z,11.90
2023-04-02T01:24:35.316Z,12.10
2023-04-02T01:25:35.436Z,13.00
2023-04-02T01:26:35.295Z,13.70
2023-04-02T01:27:35.293Z,14.20
2023-04-02T01:28:35.341Z,14.70
2023-04-02T01:29:35.278Z,12.50
2023-04-02T01:30:35.275Z,16.30
2023-04-02T01:31:35.260Z,13.70
2023-04-02T01:32:35.245Z,14.80
2023-04-02T01:33:35.337Z,14.80
2023-04-02T01:34:35.197Z,14.80
2023-04-02T01:35:35.417Z,15.50
2023-04-02T01:36:35.301Z,15.10
2023-04-02T01:37:35.233Z,15.40
2023-04-02T01:38:35.227Z,16.90
2023-04-02T01:39:35.220Z,15.70
2023-04-02T01:40:35.192Z,15.70
2023-04-02T01:41:35.271Z,14.50
2023-04-02T01:42:35.274Z,17.10
2023-04-02T01:43:35.187Z,15.70
2023-04-02T01:44:35.197Z,16.40
2023-04-02T01:45:35.628Z,17.10
2023-04-02T01:46:35.210Z,17.30
2023-04-02T01:47:35.217Z,17.20
2023-04-02T01:48:35.164Z,16.40
2023-04-02T01:49:35.082Z,18.10
2023-04-02T01:50:35.066Z,18.70
2023-04-02T01:51:34.998Z,16.60
2023-04-02T01:52:35.059Z,15.40
2023-04-02T01:53:35.146Z,15.70
2023-04-02T01:54:35.060Z,17.70
2023-04-02T01:55:35.131Z,16.50
2023-04-02T01:56:35.066Z,17.90
2023-04-02T01:57:35.016Z,16.90
2023-04-02T01:58:35.080Z,18.10
2023-04-02T01:59:34.968Z,17.20
2023-04-02T02:00:34.965Z,18.00
2023-04-02T02:01:34.982Z,17.90
2023-04-02T02:02:35.044Z,17.60
2023-04-02T02:03:35.000Z,17.90
2023-04-02T02:04:34.883Z,17.20
2023-04-02T02:05:35.049Z,18.80
2023-04-02T02:06:34.903Z,17.10
2023-04-02T02:07:34.930Z,17.30
2023-04-02T02:08:34.935Z,17.60
2023-04-02T02:09:34.864Z,18.90
2023-04-02T02:10:34.870Z,16.50
2023-04-02T02:11:34.870Z,18.70
2023-04-02T02:12:34.786Z,16.40
2023-04-02T02:13:34.816Z,17.70
2023-04-02T02:14:34.866Z,19.30
2023-04-02T02:15:34.984Z,19.20
2023-04-02T02:16:34.811Z,19.80
2023-04-02T02:17:34.933Z,17.30
2023-04-02T02:18:34.762Z,17.50
2023-04-02T02:19:34.854Z,16.30
2023-04-02T02:20:34.850Z,17.80
2023-04-02T02:21:34.779Z,16.80
2023-04-02T02:22:34.801Z,19.20
2023-04-02T02:23:34.551Z,20.20
2023-04-02T02:24:34.547Z,17.60
2023-04-02T02:25:34.910Z,19.00
2023-04-02T02:26:34.732Z,16.70
2023-04-02T02:27:34.720Z,17.00
2023-04-02T02:28:34.720Z,16.30
2023-04-02T02:29:34.638Z,17.10
2023-04-02T02:30:34.780Z,17.40
2023-04-02T02:31:34.673Z,17.50
2023-04-02T02:32:34.512Z,16.90
2023-04-02T02:33:34.700Z,18.40
2023-04-02T02:34:34.593Z,17.80
2023-04-02T02:35:35.007Z,18.00
2023-04-02T02:36:34.676Z,16.00
2023-04-02T02:37:34.590Z,18.20
2023-04-02T02:38:34.514Z,17.60
2023-04-02T02:39:34.612Z,16.70
2023-04-02T02:40:34.550Z,20.70
2023-04-02T02:41:34.662Z,18.30
2023-04-02T02:42:34.512Z,16.70
2023-04-02T02:43:34.519Z,19.00
2023-04-02T02:44:34.527Z,19.30
2023-04-02T02:45:34.668Z,17.30
2023-04-02T02:46:34.614Z,18.00
2023-04-02T02:47:34.526Z,17.30
2023-04-02T02:48:34.517Z,16.70
2023-04-02T02:49:34.506Z,16.00
2023-04-02T02:50:34.484Z,17.20
2023-04-02T02:51:34.458Z,17.90
2023-04-02T02:52:34.506Z,17.30
2023-04-02T02:53:34.425Z,15.80
2023-04-02T02:54:34.409Z,17.20
2023-04-02T02:55:34.677Z,19.10
2023-04-02T02:56:34.511Z,15.40
2023-04-02T02:57:34.509Z,17.40
2023-04-02T02:58:34.397Z,17.40
2023-04-02T02:59:34.365Z,16.90
2023-04-02T03:00:34.351Z,18.20
2023-04-02T03:01:34.375Z,17.20
2023-04-02T03:02:34.577Z,16.50
2023-04-02T03:03:34.703Z,16.20
2023-04-02T03:04:34.370Z,16.10
2023-04-02T03:05:34.578Z,16.20
2023-04-02T03:06:34.295Z,16.90
2023-04-02T03:07:34.399Z,17.20
2023-04-02T03:08:34.349Z,16.50
2023-04-02T03:09:34.173Z,18.20
2023-04-02T03:10:34.303Z,15.50
2023-04-02T03:11:34.298Z,15.70
2023-04-02T03:12:34.160Z,17.10
2023-04-02T03:13:34.188Z,14.60
2023-04-02T03:14:34.309Z,15.00
2023-04-02T03:15:34.431Z,14.00
2023-04-02T03:16:34.283Z,14.50
2023-04-02T03:17:34.300Z,13.60
2023-04-02T03:18:34.343Z,15.00
2023-04-02T03:19:34.252Z,15.70
2023-04-02T03:20:34.243Z,14.50
2023-04-02T03:21:34.230Z,14.70
2023-04-02T03:22:34.217Z,15.70
2023-04-02T03:23:34.290Z,16.40
2023-04-02T03:24:34.200Z,13.60
2023-04-02T03:25:34.437Z,15.20
2023-04-02T03:26:34.099Z,16.40
2023-04-02T03:27:34.097Z,15.20
2023-04-02T03:28:34.132Z,14.90
2023-04-02T03:29:34.072Z,12.40
2023-04-02T03:30:33.988Z,13.50
2023-04-02T03:31:34.117Z,14.10
2023-04-02T03:32:34.141Z,15.70
2023-04-02T03:33:34.182Z,13.60
2023-04-02T03:34:34.077Z,15.10
2023-04-02T03:35:34.374Z,13.80
2023-04-02T03:36:34.028Z,12.50
2023-04-02T03:37:34.011Z,13.30
2023-04-02T03:38:34.006Z,13.00
2023-04-02T03:39:34.088Z,13.60
2023-04-02T03:40:34.005Z,15.50
2023-04-02T03:41:34.002Z,13.90
2023-04-02T03:42:34.006Z,16.30
2023-04-02T03:43:33.933Z,15.80
2023-04-02T03:44:33.928Z,15.00
2023-04-02T03:45:34.304Z,14.00
2023-04-02T03:46:33.995Z,13.20
2023-04-02T03:47:33.955Z,14.10
2023-04-02T03:48:33.918Z,14.10
2023-04-02T03:49:33.904Z,13.40
2023-04-02T03:50:33.727Z,17.40
2023-04-02T03:51:33.948Z,12.50
2023-04-02T03:52:33.855Z,15.00
2023-04-02T03:53:33.899Z,13.60
2023-04-02T03:54:33.869Z,13.60
2023-04-02T03:55:34.366Z,14.60
2023-04-02T03:56:33.833Z,13.00
2023-04-02T03:57:33.838Z,12.80
2023-04-02T03:58:33.787Z,12.90
2023-04-02T03:59:33.696Z,10.80
2023-04-02T04:00:33.696Z,13.00
2023-04-02T04:01:33.704Z,12.10
2023-04-02T04:02:33.899Z,12.60
2023-04-02T04:03:33.818Z,12.50
2023-04-02T04:04:33.666Z,11.30
2023-04-02T04:05:33.940Z,11.70
2023-04-02T04:06:33.803Z,12.80
2023-04-02T04:07:33.883Z,11.90
2023-04-02T04:08:33.795Z,12.20
2023-04-02T04:09:33.779Z,12.60
2023-04-02T04:10:33.776Z,11.40
2023-04-02T04:11:33.627Z,13.00
2023-04-02T04:12:33.755Z,12.40
2023-04-02T04:13:33.703Z,11.50
2023-04-02T04:14:33.758Z,13.00
2023-04-02T04:15:33.884Z,12.90
2023-04-02T04:16:33.684Z,11.70
2023-04-02T04:17:33.705Z,12.40
2023-04-02T04:18:33.586Z,11.30
2023-04-02T04:19:33.636Z,14.10
2023-04-02T04:20:33.621Z,10.90
2023-04-02T04:21:33.597Z,12.70
2023-04-02T04:22:33.673Z,10.00
2023-04-02T04:23:33.580Z,12.50
2023-04-02T04:24:33.628Z,11.20
2023-04-02T04:25:34.025Z,11.00
2023-04-02T04:26:33.518Z,9.70
2023-04-02T04:27:33.707Z,11.00
2023-04-02T04:28:33.626Z,11.00
2023-04-02T04:29:33.520Z,11.00
2023-04-02T04:30:33.372Z,10.20
2023-04-02T04:31:33.547Z,9.90
2023-04-02T04:32:33.604Z,10.10
2023-04-02T04:33:33.504Z,8.70
2023-04-02T04:34:33.469Z,9.50
2023-04-02T04:35:33.433Z,11.30
2023-04-02T04:36:33.371Z,9.70
2023-04-02T04:37:33.462Z,10.90
2023-04-02T04:38:33.359Z,9.00
2023-04-02T04:39:33.541Z,10.70
2023-04-02T04:40:33.409Z,11.00
2023-04-02T04:41:33.379Z,9.50
2023-04-02T04:42:33.379Z,10.10
2023-04-02T04:43:33.391Z,10.80
2023-04-02T04:44:33.246Z,10.80
2023-04-02T04:45:33.532Z,10.70
2023-04-02T04:46:33.325Z,11.20
2023-04-02T04:47:33.337Z,10.00
2023-04-02T04:48:35.129Z,11.00
2023-04-02T04:49:33.313Z,11.40
2023-04-02T04:50:33.303Z,9.80
2023-04-02T04:51:33.274Z,10.30
2023-04-02T04:52:33.261Z,11.00
2023-04-02T04:53:33.249Z,8.20
2023-04-02T04:54:33.206Z,10.30
2023-04-02T04:55:33.608Z,10.80
2023-04-02T04:56:33.191Z,11.50
2023-04-02T04:57:33.166Z,10.50
2023-04-02T04:58:33.138Z,11.80
2023-04-02T04:59:33.205Z,8.80
2023-04-02T05:00:33.184Z,8.80
2023-04-02T05:01:33.182Z,9.60
2023-04-02T05:02:33.157Z,8.60
2023-04-02T05:03:33.115Z,11.00
2023-04-02T05:04:33.206Z,11.00
2023-04-02T05:05:33.262Z,12.20
2023-04-02T05:06:33.070Z,10.70
2023-04-02T05:07:33.126Z,10.30
2023-04-02T05:08:33.041Z,9.90
2023-04-02T05:09:33.034Z,9.00
2023-04-02T05:10:33.093Z,9.70
2023-04-02T05:11:33.245Z,10.40
2023-04-02T05:12:33.147Z,10.30
2023-04-02T05:13:33.063Z,10.30
2023-04-02T05:14:32.982Z,9.80
2023-04-02T05:15:33.153Z,8.80
2023-04-02T05:16:33.054Z,10.30
2023-04-02T05:17:33.126Z,10.90
2023-04-02T05:18:32.984Z,9.60
2023-04-02T05:19:32.967Z,10.70
2023-04-02T05:20:32.948Z,9.00
2023-04-02T05:21:33.016Z,8.80
2023-04-02T05:22:33.010Z,9.90
2023-04-02T05:23:32.911Z,10.70
2023-04-02T05:24:32.901Z,10.40
2023-04-02T05:25:33.125Z,10.40
2023-04-02T05:26:32.967Z,11.10
2023-04-02T05:27:32.882Z,11.30
2023-04-02T05:28:32.965Z,9.20
2023-04-02T05:29:32.954Z,9.00
2023-04-02T05:30:32.882Z,9.70
2023-04-02T05:31:32.977Z,9.00
2023-04-02T05:32:32.853Z,8.00
2023-04-02T05:33:32.860Z,9.60
2023-04-02T05:34:32.891Z,8.20
2023-04-02T05:35:33.058Z,8.40
2023-04-02T05:36:32.822Z,10.30
2023-04-02T05:37:32.835Z,9.30
2023-04-02T05:38:32.822Z,9.70
2023-04-02T05:39:32.809Z,8.70
2023-04-02T05:40:32.828Z,10.30
2023-04-02T05:41:32.746Z,9.00
2023-04-02T05:42:32.767Z,11.30
2023-04-02T05:43:32.856Z,8.00
2023-04-02T05:44:32.779Z,8.60
2023-04-02T05:45:32.889Z,8.70
2023-04-02T05:46:32.788Z,8.80
2023-04-02T05:47:32.738Z,8.90
2023-04-02T05:48:32.695Z,8.30
2023-04-02T05:49:32.772Z,9.30
2023-04-02T05:50:32.766Z,8.50
2023-04-02T05:51:32.692Z,9.20
2023-04-02T05:52:32.754Z,7.80
2023-04-02T05:53:32.668Z,10.30
2023-04-02T05:54:32.659Z,7.90
2023-04-02T05:55:33.027Z,8.30
2023-04-02T05:56:32.653Z,7.80
2023-04-02T05:58:36.851Z,9.20
2023-04-02T05:59:32.662Z,8.50
2023-04-02T06:00:32.632Z,7.20
2023-04-02T06:01:32.675Z,9.80
2023-04-02T06:02:32.588Z,8.50
2023-04-02T06:03:32.682Z,10.20
2023-04-02T06:04:32.562Z,8.90
2023-04-02T06:05:32.679Z,7.40
2023-04-02T06:06:32.666Z,8.70
2023-04-02T06:07:32.589Z,9.20
2023-04-02T06:08:32.574Z,8.80
2023-04-02T06:09:32.681Z,9.00
2023-04-02T06:10:32.505Z,7.30
2023-04-02T06:11:32.510Z,6.80
2023-04-02T06:12:32.608Z,9.50
2023-04-02T06:13:32.436Z,6.90
2023-04-02T06:14:32.449Z,7.30
2023-04-02T06:15:32.461Z,9.10
2023-04-02T06:16:32.415Z,7.90
2023-04-02T06:17:32.476Z,7.20
2023-04-02T06:18:32.399Z,7.80
2023-04-02T06:19:32.405Z,8.00
2023-04-02T06:20:32.413Z,6.50
2023-04-02T06:21:32.359Z,8.60
2023-04-02T06:22:32.417Z,8.90
2023-04-02T06:23:32.401Z,9.20
2023-04-02T06:24:32.329Z,7.30
2023-04-02T06:25:32.323Z,8.80
2023-04-02T06:26:32.310Z,6.70
2023-04-02T06:27:32.277Z,8.10
2023-04-02T06:28:32.332Z,8.30
2023-04-02T06:29:32.394Z,10.00
2023-04-02T06:30:32.329Z,9.50
2023-04-02T06:31:32.314Z,8.10
2023-04-02T06:32:32.375Z,7.80
2023-04-02T06:33:32.310Z,7.50
2023-04-02T06:34:32.210Z,8.20
2023-04-02T06:35:32.284Z,6.80
2023-04-02T06:36:32.279Z,8.60
2023-04-02T06:37:32.255Z,9.20
2023-04-02T06:38:32.331Z,7.90
2023-04-02T06:39:32.181Z,6.80
2023-04-02T06:40:32.278Z,9.40
2023-04-02T06:41:32.212Z,6.50
2023-04-02T06:42:32.200Z,6.50
2023-04-02T06:43:32.197Z,6.40
2023-04-02T06:44:32.170Z,7.40
2023-04-02T06:45:32.272Z,7.10
2023-04-02T06:46:32.290Z,8.00
2023-04-02T06:47:32.164Z,6.70
2023-04-02T06:48:32.128Z,6.60
2023-04-02T06:49:32.129Z,6.10
2023-04-02T06:50:32.202Z,7.20
2023-04-02T06:51:32.109Z,5.50
2023-04-02T06:52:33.978Z,8.00
2023-04-02T06:53:32.094Z,6.90
2023-04-02T06:54:32.047Z,7.60
2023-04-02T06:55:32.134Z,5.60
2023-04-02T06:56:32.026Z,8.30
2023-04-02T06:57:32.212Z,8.20
2023-04-02T06:58:32.090Z,7.10
2023-04-02T06:59:32.028Z,6.70
2023-04-02T07:00:32.003Z,7.60
2023-04-02T07:01:32.123Z,6.40
2023-04-02T07:02:32.012Z,6.40
2023-04-02T07:03:31.970Z,6.00
2023-04-02T07:04:32.119Z,6.70
2023-04-02T07:05:31.951Z,7.20
2023-04-02T07:06:32.028Z,9.60
2023-04-02T07:07:31.956Z,8.00
2023-04-02T07:08:31.892Z,6.20
2023-04-02T07:09:31.906Z,8.30
2023-04-02T07:10:31.911Z,7.80
2023-04-02T07:11:32.007Z,7.20
2023-04-02T07:12:31.864Z,6.80
2023-04-02T07:13:31.928Z,7.20
2023-04-02T07:14:31.857Z,7.00
2023-04-02T07:15:31.855Z,6.70
2023-04-02T07:16:31.971Z,7.60
2023-04-02T07:17:31.902Z,6.30
2023-04-02T07:18:31.831Z,6.30
2023-04-02T07:19:31.885Z,6.20
2023-04-02T07:20:31.816Z,5.80
2023-04-02T07:21:31.905Z,10.20
2023-04-02T07:22:31.763Z,6.60
2023-04-02T07:23:31.744Z,7.00
2023-04-02T07:24:31.735Z,6.50
2023-04-02T07:25:31.733Z,7.40
2023-04-02T07:26:31.801Z,6.60
2023-04-02T07:27:31.704Z,6.10
2023-04-02T07:28:31.768Z,8.10
2023-04-02T07:29:31.818Z,7.60
2023-04-02T07:30:31.802Z,5.50
2023-04-02T07:31:31.758Z,7.20
2023-04-02T07:32:31.693Z,7.10
2023-04-02T07:33:31.693Z,7.40
2023-04-02T07:34:31.714Z,6.90
2023-04-02T07:35:31.675Z,9.00
2023-04-02T07:36:31.659Z,8.10
2023-04-02T07:37:31.653Z,5.90
2023-04-02T07:38:31.650Z,6.70
2023-04-02T07:39:31.636Z,7.60
2023-04-02T07:40:31.707Z,8.40
2023-04-02T07:41:31.614Z,6.20
2023-04-02T07:42:31.605Z,5.40
2023-04-02T07:43:31.666Z,6.90
2023-04-02T07:44:31.579Z,7.10
2023-04-02T07:45:31.644Z,7.90
2023-04-02T07:46:31.527Z,7.40
2023-04-02T07:47:31.516Z,7.30
2023-04-02T07:48:31.494Z,6.60
2023-04-02T07:49:31.570Z,8.40
2023-04-02T07:50:31.474Z,6.90
2023-04-02T07:51:31.448Z,7.30
2023-04-02T07:52:31.534Z,8.00
2023-04-02T07:53:31.475Z,7.90
2023-04-02T07:54:31.434Z,7.50
2023-04-02T07:55:31.435Z,6.10
2023-04-02T07:56:31.410Z,8.20
2023-04-02T07:57:31.549Z,7.20
2023-04-02T07:58:31.401Z,4.70
2023-04-02T07:59:31.398Z,5.90
2023-04-02T08:00:31.425Z,6.90
2023-04-02T08:01:31.505Z,7.70
2023-04-02T08:02:31.525Z,5.90
2023-04-02T08:03:31.525Z,6.90
2023-04-02T08:04:31.369Z,7.10
2023-04-02T08:05:31.364Z,6.60
2023-04-02T08:06:31.431Z,6.60
2023-04-02T08:07:31.299Z,6.60
2023-04-02T08:08:31.334Z,5.70
2023-04-02T08:09:31.290Z,6.70
2023-04-02T08:10:31.386Z,6.00
2023-04-02T08:11:31.960Z,7.10
2023-04-02T08:12:31.282Z,6.80
2023-04-02T08:13:31.280Z,6.70
2023-04-02T08:14:31.279Z,5.30
2023-04-02T08:15:31.276Z,6.10
2023-04-02T08:16:31.233Z,6.80
2023-04-02T08:17:31.404Z,6.40
2023-04-02T08:18:31.312Z,6.70
2023-04-02T08:19:31.904Z,5.80
2023-04-02T08:20:31.213Z,5.70
2023-04-02T08:21:31.136Z,6.10
2023-04-02T08:22:31.216Z,5.70
2023-04-02T08:23:31.128Z,7.70
2023-04-02T08:24:31.120Z,6.60
2023-04-02T08:25:31.113Z,7.00
2023-04-02T08:26:31.098Z,6.40
2023-04-02T08:27:31.158Z,6.30
2023-04-02T08:28:31.061Z,6.90
2023-04-02T08:29:31.034Z,7.10
2023-04-02T08:30:31.034Z,6.90
2023-04-02T08:31:31.054Z,6.30
2023-04-02T08:32:31.102Z,5.90
2023-04-02T08:33:31.098Z,7.10
2023-04-02T08:34:31.037Z,5.40
2023-04-02T08:35:31.040Z,4.30
2023-04-02T08:36:31.044Z,5.90
2023-04-02T08:37:31.122Z,7.60
2023-04-02T08:38:31.129Z,5.60
2023-04-02T08:39:31.021Z,5.80
2023-04-02T08:40:30.991Z,5.70
2023-04-02T08:41:30.962Z,4.90
2023-04-02T08:42:30.961Z,7.00
2023-04-02T08:43:31.037Z,5.60
2023-04-02T08:44:30.934Z,5.50
2023-04-02T08:45:30.929Z,6.40
2023-04-02T08:46:31.027Z,7.60
2023-04-02T08:47:30.940Z,6.60
2023-04-02T08:48:30.944Z,6.60
2023-04-02T08:49:30.989Z,7.10
2023-04-02T08:50:30.897Z,6.10
2023-04-02T08:51:30.890Z,5.80
2023-04-02T08:52:30.884Z,6.10
2023-04-02T08:53:30.955Z,4.70
2023-04-02T08:54:30.949Z,6.00
2023-04-02T08:55:30.846Z,6.10
2023-04-02T08:56:30.915Z,7.80
2023-04-02T08:57:30.916Z,6.30
2023-04-02T08:58:30.808Z,7.00
2023-04-02T08:59:30.879Z,7.70
2023-04-02T09:00:30.783Z,7.50
2023-04-02T09:01:30.844Z,5.70
2023-04-02T09:02:30.729Z,6.20
2023-04-02T09:03:30.761Z,4.20
2023-04-02T09:04:30.831Z,7.50
2023-04-02T09:05:30.777Z,8.20
2023-04-02T09:06:30.703Z,6.60
2023-04-02T09:07:30.772Z,7.90
2023-04-02T09:08:30.649Z,7.50
2023-04-02T09:09:30.666Z,6.20
2023-04-02T09:10:30.694Z,6.40
2023-04-02T09:11:30.613Z,7.20
2023-04-02T09:12:30.626Z,5.00
2023-04-02T09:13:30.575Z,6.50
2023-04-02T09:14:30.567Z,7.40
2023-04-02T09:15:30.665Z,8.70
2023-04-02T09:16:30.619Z,7.40
2023-04-02T09:17:36.926Z,6.70
2023-04-02T09:18:30.678Z,5.30
2023-04-02T09:19:30.505Z,6.50
2023-04-02T09:20:30.530Z,4.40
2023-04-02T09:21:30.552Z,6.40
2023-04-02T09:22:30.486Z,6.60
2023-04-02T09:23:30.527Z,6.10
2023-04-02T09:24:30.464Z,7.10
2023-04-02T09:25:30.586Z,5.20
2023-04-02T09:26:30.511Z,7.00
2023-04-02T09:27:30.525Z,5.40
2023-04-02T09:28:30.463Z,5.20
2023-04-02T09:29:30.458Z,6.20
2023-04-02T09:30:30.399Z,5.80
2023-04-02T09:31:30.553Z,5.50
2023-04-02T09:32:30.453Z,5.10
2023-04-02T09:33:30.471Z,6.70
2023-04-02T09:34:30.399Z,4.40
2023-04-02T09:35:30.387Z,7.40
2023-04-02T09:36:30.454Z,6.10
2023-04-02T09:37:30.494Z,6.70
2023-04-02T09:38:30.426Z,6.40
2023-04-02T09:39:30.331Z,5.50
2023-04-02T09:40:30.274Z,5.80
2023-04-02T09:41:30.367Z,5.50
2023-04-02T09:42:30.304Z,7.00
2023-04-02T09:43:30.343Z,6.70
2023-04-02T09:44:30.272Z,6.40
2023-04-02T09:45:30.216Z,6.00
2023-04-02T09:46:30.406Z,5.80
2023-04-02T09:47:30.257Z,6.40
2023-04-02T09:48:30.517Z,6.90
2023-04-02T09:49:30.281Z,6.50
2023-04-02T09:50:30.228Z,8.70
2023-04-02T09:51:30.167Z,7.60
2023-04-02T09:52:30.227Z,5.10
2023-04-02T09:53:30.144Z,6.00
2023-04-02T09:54:30.151Z,6.00
2023-04-02T09:55:30.222Z,5.80
2023-04-02T09:56:30.116Z,4.50
2023-04-02T09:57:30.170Z,6.30
2023-04-02T09:58:30.091Z,6.80
2023-04-02T09:59:30.087Z,5.60
2023-04-02T10:00:32.440Z,6.20
2023-04-02T10:01:30.154Z,5.50
2023-04-02T10:02:30.161Z,5.50
2023-04-02T10:03:30.075Z,4.70
2023-04-02T10:04:30.067Z,4.60
2023-04-02T10:05:39.429Z,5.90
2023-04-02T10:06:30.076Z,5.50
2023-04-02T10:07:30.028Z,5.60
2023-04-02T10:08:30.132Z,6.90
2023-04-02T10:09:29.999Z,6.70
2023-04-02T10:10:30.081Z,4.50
2023-04-02T10:11:36.454Z,6.30
2023-04-02T10:12:30.026Z,6.60
2023-04-02T10:13:30.116Z,4.50
2023-04-02T10:14:30.014Z,5.90
2023-04-02T10:15:29.985Z,8.50
2023-04-02T10:16:30.048Z,4.30
2023-04-02T10:17:30.012Z,6.90
2023-04-02T10:18:29.865Z,4.70
2023-04-02T10:19:29.979Z,7.80
2023-04-02T10:20:32.244Z,7.60
2023-04-02T10:21:29.837Z,7.20
2023-04-02T10:22:29.943Z,7.30
2023-04-02T10:23:29.917Z,7.00
2023-04-02T10:24:29.988Z,7.60
2023-04-02T10:25:29.896Z,4.70
2023-04-02T10:26:29.783Z,10.60
2023-04-02T10:27:29.920Z,9.00
2023-04-02T10:28:29.871Z,6.30
2023-04-02T10:29:29.948Z,6.00
2023-04-02T10:30:29.984Z,6.70
2023-04-02T10:31:29.843Z,4.70
2023-04-02T10:32:29.917Z,7.00
2023-04-02T10:33:29.803Z,7.90
2023-04-02T10:34:29.857Z,6.50
2023-04-02T10:35:29.772Z,7.20
2023-04-02T10:36:29.742Z,5.50
2023-04-02T10:37:29.716Z,4.90
2023-04-02T10:38:29.866Z,7.40
2023-04-02T10:39:29.726Z,6.30
2023-04-02T10:40:29.695Z,6.90
2023-04-02T10:41:29.675Z,4.40
2023-04-02T10:42:29.734Z,6.10
2023-04-02T10:43:29.622Z,5.30
2023-04-02T10:44:29.610Z,4.90
2023-04-02T10:45:29.586Z,6.00
2023-04-02T10:46:29.715Z,5.40
2023-04-02T10:47:29.688Z,5.40
2023-04-02T10:48:29.559Z,4.30
2023-04-02T10:49:29.581Z,6.10
2023-04-02T10:50:29.615Z,5.30
2023-04-02T10:51:29.695Z,6.00
2023-04-02T10:52:29.526Z,5.40
2023-04-02T10:53:29.505Z,4.10
2023-04-02T10:54:29.557Z,4.80
2023-04-02T10:55:29.561Z,5.50
2023-04-02T10:56:35.135Z,5.00
2023-04-02T10:57:29.580Z,6.60
2023-04-02T10:58:29.516Z,7.00
2023-04-02T10:59:29.556Z,6.20
2023-04-02T11:00:29.472Z,8.40
2023-04-02T11:01:29.762Z,5.50
2023-04-02T11:02:29.554Z,5.20
2023-04-02T11:03:29.705Z,3.80
2023-04-02T11:04:29.524Z,4.30
2023-04-02T11:05:29.382Z,6.60
2023-04-02T11:06:29.483Z,4.70
2023-04-02T11:07:29.470Z,5.80
2023-04-02T11:08:29.467Z,5.70
2023-04-02T11:09:29.510Z,6.50
2023-04-02T11:10:29.362Z,6.30
2023-04-02T11:11:29.375Z,5.00
2023-04-02T11:12:29.434Z,5.80
2023-04-02T11:13:29.502Z,5.20
2023-04-02T11:14:29.414Z,5.70
2023-04-02T11:15:29.369Z,6.30
2023-04-02T11:16:29.386Z,5.90
2023-04-02T11:17:29.289Z,5.90
2023-04-02T11:18:29.245Z,5.80
2023-04-02T11:19:29.348Z,8.70
2023-04-02T11:20:29.331Z,6.60
2023-04-02T11:21:29.313Z,6.70
2023-04-02T11:22:29.301Z,6.40
2023-04-02T11:23:29.281Z,6.70
2023-04-02T11:24:29.339Z,5.60
2023-04-02T11:25:29.254Z,5.30
2023-04-02T11:26:29.238Z,8.30
2023-04-02T11:27:29.219Z,6.10
2023-04-02T11:28:29.212Z,6.10
2023-04-02T11:29:29.257Z,4.60
2023-04-02T11:30:29.227Z,7.50
2023-04-02T11:31:29.284Z,6.20
2023-04-02T11:32:29.260Z,5.50
2023-04-02T11:33:36.523Z,6.70
2023-04-02T11:34:29.206Z,5.90
2023-04-02T11:35:29.136Z,7.40
2023-04-02T11:36:29.108Z,5.70
2023-04-02T11:37:29.105Z,5.40
2023-04-02T11:38:29.099Z,5.60
2023-04-02T11:39:29.087Z,5.30
2023-04-02T11:40:29.146Z,4.20
2023-04-02T11:41:29.060Z,5.60
2023-04-02T11:42:29.061Z,7.60
2023-04-02T11:43:29.041Z,5.90
2023-04-02T11:44:29.028Z,7.00
2023-04-02T11:45:29.024Z,5.40
2023-04-02T11:46:29.128Z,7.00
2023-04-02T11:47:29.016Z,5.00
2023-04-02T11:48:29.030Z,4.00
2023-04-02T11:49:28.976Z,5.80
2023-04-02T11:50:28.944Z,5.40
2023-04-02T11:51:28.932Z,6.10
2023-04-02T11:52:29.015Z,4.90
2023-04-02T11:53:29.005Z,5.90
2023-04-02T11:54:28.917Z,4.40
2023-04-02T11:55:28.912Z,5.40
2023-04-02T11:56:28.907Z,4.50
2023-04-02T11:57:29.029Z,6.70
2023-04-02T11:58:28.815Z,6.60
2023-04-02T11:59:28.808Z,6.10
2023-04-02T12:00:28.762Z,6.30
2023-04-02T12:01:28.852Z,5.70
2023-04-02T12:02:29.027Z,5.50
2023-04-02T12:03:28.951Z,6.30
2023-04-02T12:04:28.773Z,6.00
2023-04-02T12:05:28.842Z,6.10
2023-04-02T12:06:28.750Z,6.20
2023-04-02T12:07:28.768Z,6.20
2023-04-02T12:08:28.882Z,5.10
2023-04-02T12:09:28.776Z,5.70
2023-04-02T12:10:28.811Z,6.30
2023-04-02T12:11:28.681Z,7.30
2023-04-02T12:12:28.725Z,5.20
2023-04-02T12:13:28.751Z,5.70
2023-04-02T12:14:28.776Z,6.40
2023-04-02T12:15:28.780Z,6.10
2023-04-02T12:16:28.755Z,5.10
2023-04-02T12:17:28.668Z,4.70
2023-04-02T12:18:28.668Z,7.60
2023-04-02T12:19:28.751Z,7.70
2023-04-02T12:20:28.655Z,5.00
2023-04-02T12:21:28.657Z,6.00
2023-04-02T12:22:28.573Z,6.20
2023-04-02T12:23:28.629Z,6.30
2023-04-02T12:24:28.540Z,7.50
2023-04-02T12:25:28.685Z,5.60
2023-04-02T12:26:28.578Z,5.90
2023-04-02T12:27:28.570Z,7.60
2023-04-02T12:28:28.544Z,5.40
2023-04-02T12:29:28.525Z,5.40
2023-04-02T12:30:28.615Z,5.80
2023-04-02T12:31:28.639Z,5.30
2023-04-02T12:32:29.780Z,5.60
2023-04-02T12:33:28.518Z,6.50
2023-04-02T12:34:28.433Z,6.30
2023-04-02T12:35:28.461Z,6.40
2023-04-02T12:36:28.541Z,6.40
2023-04-02T12:37:28.465Z,5.80
2023-04-02T12:38:28.466Z,6.80
2023-04-02T12:39:28.785Z,5.60
2023-04-02T12:40:28.401Z,6.20
2023-04-02T12:41:28.514Z,5.40
2023-04-02T12:42:28.466Z,5.60
2023-04-02T12:43:28.416Z,5.50
2023-04-02T12:44:28.440Z,5.50
2023-04-02T12:45:29.582Z,5.00
2023-04-02T12:46:28.462Z,4.50
2023-04-02T12:47:28.436Z,7.10
2023-04-02T12:48:28.334Z,7.20
2023-04-02T12:49:28.329Z,5.20
2023-04-02T12:50:28.323Z,5.70
2023-04-02T12:51:28.503Z,6.30
2023-04-02T12:52:28.428Z,6.60
2023-04-02T12:53:28.426Z,5.80
2023-04-02T12:54:28.229Z,5.90
2023-04-02T12:55:28.225Z,3.80
2023-04-02T12:56:28.247Z,4.30
2023-04-02T12:57:28.252Z,5.60
2023-04-02T12:58:28.297Z,6.70
2023-04-02T12:59:28.204Z,6.70
2023-04-02T13:00:28.188Z,6.00
2023-04-02T13:01:28.340Z,5.10
2023-04-02T13:02:28.207Z,6.60
2023-04-02T13:03:29.182Z,5.70
2023-04-02T13:04:28.224Z,4.70
2023-04-02T13:05:28.157Z,6.70
2023-04-02T13:06:28.111Z,8.30
2023-04-02T13:07:28.128Z,7.20
2023-04-02T13:08:28.224Z,7.10
2023-04-02T13:09:28.733Z,5.80